Time;durP1;ratioP1;P1;durP2;ratioP2;P2;SDS_P1;SDS_P2;PMS_P1;PMS_P2;Temp;Humidity;BMP_temperature;BMP_pressure;BME280_temperature;BME280_humidity;BME280_pressure;Samples;Min_cycle;Max_cycle;Signal;HPM_P1;HPM_P2
2023/04/16 00:00:54;;;;;;;27.17;16.00;;;;;;;;;;10247451;28;20919;-78
2023/04/16 00:05:55;;;;;;;24.17;15.50;;;;;;;;;;10249979;28;20914;-77
2023/04/16 00:10:56;;;;;;;22.83;15.18;;;;;;;;;;10259338;28;20216;-77
2023/04/16 00:15:58;;;;;;;24.38;14.68;;;;;;;;;;10251062;28;20249;-77
2023/04/16 00:20:58;;;;;;;23.27;13.90;;;;;;;;;;10248769;28;20758;-77
2023/04/16 00:25:59;;;;;;;26.58;15.63;;;;;;;;;;10251315;28;20230;-78
2023/04/16 00:31:00;;;;;;;26.85;15.55;;;;;;;;;;10243050;28;20233;-79
2023/04/16 00:36:01;;;;;;;23.85;14.52;;;;;;;;;;10238975;28;20240;-77
2023/04/16 00:41:02;;;;;;;22.15;13.82;;;;;;;;;;10245875;28;20244;-79
2023/04/16 00:46:05;;;;;;;24.40;14.13;;;;;;;;;;10252185;28;20222;-77
2023/04/16 00:51:07;;;;;;;21.25;14.70;;;;;;;;;;10252268;28;20276;-78
2023/04/16 00:56:09;;;;;;;22.75;14.35;;;;;;;;;;10245947;28;20230;-77
2023/04/16 01:01:10;;;;;;;21.13;12.90;;;;;;;;;;10231166;28;20316;-77
2023/04/16 01:06:11;;;;;;;20.65;13.02;;;;;;;;;;10244778;28;20221;-77
2023/04/16 01:11:13;;;;;;;18.83;13.50;;;;;;;;;;10233665;28;20766;-78
2023/04/16 01:16:16;;;;;;;22.60;13.23;;;;;;;;;;10262794;28;20218;-77
2023/04/16 01:21:17;;;;;;;21.67;12.63;;;;;;;;;;10242596;28;20210;-77
2023/04/16 01:26:18;;;;;;;29.40;14.32;;;;;;;;;;10253435;28;20222;-76
2023/04/16 01:31:19;;;;;;;20.75;13.48;;;;;;;;;;10228098;28;20214;-78
2023/04/16 01:36:30;;;;;;;20.13;13.23;;;;;;;;;;10250413;28;20229;-77
2023/04/16 01:41:31;;;;;;;20.40;12.48;;;;;;;;;;10245445;28;20213;-79
2023/04/16 01:46:33;;;;;;;21.35;13.05;;;;;;;;;;10224530;28;21066;-77
2023/04/16 01:51:34;;;;;;;24.88;13.73;;;;;;;;;;10239424;28;20221;-78
2023/04/16 01:56:35;;;;;;;20.90;12.73;;;;;;;;;;10242980;28;20341;-79
2023/04/16 02:01:36;;;;;;;17.55;12.85;;;;;;;;;;10228849;28;20218;-76
2023/04/16 02:06:38;;;;;;;24.05;13.48;;;;;;;;;;10220634;28;20313;-77
2023/04/16 02:11:39;;;;;;;22.58;12.63;;;;;;;;;;10253629;28;20229;-78
2023/04/16 02:16:40;;;;;;;21.08;12.27;;;;;;;;;;10224483;28;20311;-78
2023/04/16 02:22:10;;;;;;;18.20;11.82;;;;;;;;;;10244362;28;20241;-79
2023/04/16 02:27:11;;;;;;;17.08;11.43;;;;;;;;;;10228485;28;20222;-77
2023/04/16 02:32:13;;;;;;;19.60;12.73;;;;;;;;;;10247218;28;20304;-77
2023/04/16 02:37:17;;;;;;;20.40;12.85;;;;;;;;;;10231518;28;20225;-75
2023/04/16 02:42:18;;;;;;;19.52;12.88;;;;;;;;;;10235237;28;20969;-77
2023/04/16 02:47:19;;;;;;;20.98;12.70;;;;;;;;;;10240010;28;20252;-77
2023/04/16 02:52:20;;;;;;;22.88;13.10;;;;;;;;;;10213354;28;20236;-76
2023/04/16 02:57:21;;;;;;;23.77;13.70;;;;;;;;;;10231697;28;20228;-78
2023/04/16 03:02:22;;;;;;;19.55;12.70;;;;;;;;;;10232790;28;20305;-79
2023/04/16 03:07:23;;;;;;;22.10;13.75;;;;;;;;;;10241378;28;20684;-79
2023/04/16 03:12:24;;;;;;;24.02;13.10;;;;;;;;;;10245778;28;20368;-77
2023/04/16 03:17:25;;;;;;;24.63;12.95;;;;;;;;;;10242056;28;20653;-76
2023/04/16 03:22:26;;;;;;;21.35;12.75;;;;;;;;;;10251551;28;20310;-77
2023/04/16 03:27:27;;;;;;;22.33;12.52;;;;;;;;;;10252816;28;20218;-76
2023/04/16 03:32:29;;;;;;;22.92;11.60;;;;;;;;;;10238703;28;20232;-76
2023/04/16 03:37:30;;;;;;;19.60;12.68;;;;;;;;;;10237671;28;20248;-77
2023/04/16 03:42:32;;;;;;;33.00;13.75;;;;;;;;;;10251264;28;20260;-77
2023/04/16 03:47:33;;;;;;;24.42;12.90;;;;;;;;;;10239102;28;20272;-75
2023/04/16 03:52:37;;;;;;;27.50;12.75;;;;;;;;;;10238886;28;20220;-75
2023/04/16 03:57:38;;;;;;;26.00;13.52;;;;;;;;;;10244079;28;20253;-76
2023/04/16 04:02:44;;;;;;;22.95;12.63;;;;;;;;;;10239544;28;20229;-76
2023/04/16 04:07:51;;;;;;;22.33;13.40;;;;;;;;;;10249234;28;20240;-76
2023/04/16 04:12:52;;;;;;;24.42;14.07;;;;;;;;;;10240512;28;20258;-77
2023/04/16 04:17:54;;;;;;;25.75;13.40;;;;;;;;;;10247045;28;20283;-77
2023/04/16 04:22:55;;;;;;;22.60;13.85;;;;;;;;;;10263050;28;20234;-76
2023/04/16 04:27:59;;;;;;;27.38;14.40;;;;;;;;;;10249619;28;20228;-76
2023/04/16 04:33:00;;;;;;;26.88;14.60;;;;;;;;;;10252770;28;20254;-79
2023/04/16 04:38:02;;;;;;;28.58;14.32;;;;;;;;;;10247418;28;20667;-77
2023/04/16 04:43:03;;;;;;;27.55;14.68;;;;;;;;;;10251388;28;20894;-76
2023/04/16 04:48:06;;;;;;;25.63;15.30;;;;;;;;;;10249266;28;20312;-76
2023/04/16 04:53:10;;;;;;;28.85;14.85;;;;;;;;;;10242683;28;20279;-78
2023/04/16 04:58:12;;;;;;;30.48;15.23;;;;;;;;;;10249627;28;20341;-76
2023/04/16 05:03:19;;;;;;;22.77;14.68;;;;;;;;;;10255013;28;20229;-77
2023/04/16 05:08:20;;;;;;;28.33;15.10;;;;;;;;;;10231318;28;20228;-75
2023/04/16 05:13:21;;;;;;;30.45;15.35;;;;;;;;;;10247734;28;20260;-77
2023/04/16 05:18:22;;;;;;;30.52;14.70;;;;;;;;;;10266067;28;20225;-75
2023/04/16 05:23:23;;;;;;;24.92;13.95;;;;;;;;;;10214569;28;20214;-77
2023/04/16 05:28:24;;;;;;;38.20;15.40;;;;;;;;;;10222767;28;20212;-76
2023/04/16 05:33:25;;;;;;;24.83;14.40;;;;;;;;;;10222681;28;20274;-76
2023/04/16 05:38:26;;;;;;;29.67;14.52;;;;;;;;;;10238550;28;20347;-77
2023/04/16 05:43:27;;;;;;;36.00;14.60;;;;;;;;;;10230341;28;20599;-78
2023/04/16 05:48:28;;;;;;;23.00;14.40;;;;;;;;;;10233858;28;20726;-76
2023/04/16 05:53:29;;;;;;;24.48;14.45;;;;;;;;;;10227718;28;20237;-76
2023/04/16 05:58:30;;;;;;;23.90;15.13;;;;;;;;;;10234362;28;20736;-76
2023/04/16 06:03:31;;;;;;;32.20;14.27;;;;;;;;;;10226500;28;20256;-78
2023/04/16 06:08:32;;;;;;;30.00;15.32;;;;;;;;;;10245161;28;20221;-77
2023/04/16 06:13:33;;;;;;;28.58;15.65;;;;;;;;;;10257861;28;20222;-75
2023/04/16 06:18:34;;;;;;;28.42;16.23;;;;;;;;;;10245532;28;20229;-79
2023/04/16 06:23:35;;;;;;;30.33;14.18;;;;;;;;;;10240833;28;20255;-76
2023/04/16 06:28:36;;;;;;;30.23;15.20;;;;;;;;;;10241807;28;20217;-76
2023/04/16 06:33:37;;;;;;;29.73;15.25;;;;;;;;;;10241310;28;20216;-78
2023/04/16 06:38:38;;;;;;;28.83;15.98;;;;;;;;;;10225217;28;20313;-75
2023/04/16 06:43:39;;;;;;;27.75;15.25;;;;;;;;;;10229959;28;20246;-74
2023/04/16 06:48:41;;;;;;;27.00;14.77;;;;;;;;;;10240246;28;20226;-77
2023/04/16 06:53:42;;;;;;;29.95;15.80;;;;;;;;;;10238534;28;21368;-76
2023/04/16 06:58:43;;;;;;;29.88;15.18;;;;;;;;;;10216563;28;1314300;-77
2023/04/16 07:03:44;;;;;;;29.25;14.18;;;;;;;;;;10231258;28;20738;-79
2023/04/16 07:08:45;;;;;;;30.25;14.57;;;;;;;;;;10231139;28;20228;-77
2023/04/16 07:13:46;;;;;;;33.25;15.25;;;;;;;;;;10246602;28;20279;-77
2023/04/16 07:18:47;;;;;;;29.85;15.35;;;;;;;;;;10243755;28;21170;-79
2023/04/16 07:23:48;;;;;;;29.60;16.10;;;;;;;;;;10227290;28;20221;-74
2023/04/16 07:28:49;;;;;;;32.08;16.65;;;;;;;;;;10242401;28;20469;-78
2023/04/16 07:33:50;;;;;;;33.20;16.42;;;;;;;;;;10249250;28;20306;-78
2023/04/16 07:38:51;;;;;;;32.33;17.40;;;;;;;;;;10241556;28;20226;-77
2023/04/16 07:43:52;;;;;;;27.63;15.48;;;;;;;;;;10249026;28;20228;-78
2023/04/16 07:48:53;;;;;;;32.70;16.90;;;;;;;;;;10252833;28;20217;-77
2023/04/16 07:53:54;;;;;;;37.72;16.10;;;;;;;;;;10237223;28;20229;-78
2023/04/16 07:58:55;;;;;;;42.67;17.33;;;;;;;;;;10227892;28;20226;-77
2023/04/16 08:03:56;;;;;;;37.13;17.73;;;;;;;;;;10251427;28;20299;-77
2023/04/16 08:08:57;;;;;;;31.52;16.95;;;;;;;;;;10228326;28;20214;-77
2023/04/16 08:13:58;;;;;;;34.85;17.42;;;;;;;;;;10255435;28;20679;-78
2023/04/16 08:19:00;;;;;;;34.38;16.83;;;;;;;;;;10254325;28;20229;-77
2023/04/16 08:24:00;;;;;;;31.75;17.25;;;;;;;;;;10239234;28;20252;-80
2023/04/16 08:29:01;;;;;;;31.17;15.70;;;;;;;;;;10251002;28;20217;-76
2023/04/16 08:34:02;;;;;;;34.38;15.93;;;;;;;;;;10251608;28;20259;-77
2023/04/16 08:39:04;;;;;;;30.60;16.02;;;;;;;;;;10228926;28;20213;-78
2023/04/16 08:44:08;;;;;;;35.90;16.48;;;;;;;;;;10224588;28;20220;-76
2023/04/16 08:49:15;;;;;;;29.40;16.48;;;;;;;;;;10243408;28;20782;-79
2023/04/16 08:54:20;;;;;;;31.52;16.63;;;;;;;;;;10204921;28;20235;-79
2023/04/16 08:59:21;;;;;;;31.58;15.95;;;;;;;;;;10236340;28;20225;-77
2023/04/16 09:04:24;;;;;;;31.13;15.88;;;;;;;;;;10219441;28;20223;-77
2023/04/16 09:09:26;;;;;;;31.02;16.00;;;;;;;;;;10224169;28;20591;-78
2023/04/16 09:14:27;;;;;;;28.55;15.60;;;;;;;;;;10237223;28;20217;-75
2023/04/16 09:19:28;;;;;;;32.35;15.25;;;;;;;;;;10234954;28;20228;-78
2023/04/16 09:24:29;;;;;;;31.30;16.45;;;;;;;;;;10226006;28;20762;-77
2023/04/16 09:29:37;;;;;;;40.42;18.88;;;;;;;;;;10234498;28;20231;-78
2023/04/16 09:34:56;;;;;;;39.63;19.52;;;;;;;;;;10235254;28;21094;-77
2023/04/16 09:40:01;;;;;;;42.38;19.83;;;;;;;;;;10235874;28;20311;-78
2023/04/16 09:45:02;;;;;;;34.60;18.38;;;;;;;;;;10220739;28;20218;-77
2023/04/16 09:50:03;;;;;;;36.05;17.60;;;;;;;;;;10235284;28;22103;-76
2023/04/16 09:55:05;;;;;;;34.65;18.33;;;;;;;;;;10230758;28;20979;-74
2023/04/16 10:00:07;;;;;;;42.22;19.33;;;;;;;;;;10223216;28;20220;-76
2023/04/16 10:05:09;;;;;;;43.92;19.80;;;;;;;;;;10254242;28;20252;-77
2023/04/16 10:10:10;;;;;;;35.83;18.80;;;;;;;;;;10223887;28;20668;-76
2023/04/16 10:15:11;;;;;;;34.60;16.63;;;;;;;;;;10223379;28;20213;-78
2023/04/16 10:20:12;;;;;;;33.38;17.30;;;;;;;;;;10241190;28;20406;-77
2023/04/16 10:25:13;;;;;;;27.92;15.95;;;;;;;;;;10233854;28;20236;-77
2023/04/16 10:30:15;;;;;;;32.78;15.90;;;;;;;;;;10230687;28;20206;-78
2023/04/16 10:35:20;;;;;;;31.30;16.05;;;;;;;;;;10236283;28;20270;-78
2023/04/16 10:40:22;;;;;;;29.15;14.60;;;;;;;;;;10229507;28;20246;-76
2023/04/16 10:45:31;;;;;;;29.30;16.90;;;;;;;;;;10237416;28;20723;-77
2023/04/16 10:50:35;;;;;;;33.15;15.07;;;;;;;;;;10245843;28;20655;-77
2023/04/16 10:55:39;;;;;;;21.23;12.60;;;;;;;;;;10243202;28;20308;-75
2023/04/16 11:00:52;;;;;;;26.45;13.65;;;;;;;;;;10229036;28;20225;-77
2023/04/16 11:05:54;;;;;;;31.70;14.32;;;;;;;;;;10250297;28;20225;-75
2023/04/16 11:10:57;;;;;;;29.33;14.63;;;;;;;;;;10236150;28;20232;-76
2023/04/16 11:15:58;;;;;;;34.72;16.05;;;;;;;;;;10229631;28;20222;-77
2023/04/16 11:20:59;;;;;;;26.00;16.13;;;;;;;;;;10231816;28;20715;-76
2023/04/16 11:26:00;;;;;;;27.95;15.20;;;;;;;;;;10245370;28;20730;-73
2023/04/16 11:31:10;;;;;;;25.17;14.85;;;;;;;;;;10232067;28;20663;-77
2023/04/16 11:36:11;;;;;;;33.10;16.10;;;;;;;;;;10248712;28;20366;-76
2023/04/16 11:41:18;;;;;;;31.73;15.32;;;;;;;;;;10220729;28;20221;-76
2023/04/16 11:46:19;;;;;;;36.35;17.08;;;;;;;;;;10246767;28;20326;-75
2023/04/16 11:51:22;;;;;;;28.48;15.13;;;;;;;;;;10257183;28;20229;-77
2023/04/16 11:56:29;;;;;;;29.30;15.15;;;;;;;;;;10241834;28;20333;-76
2023/04/16 12:01:30;;;;;;;30.05;15.23;;;;;;;;;;10232859;28;20772;-77
2023/04/16 12:06:32;;;;;;;28.92;17.15;;;;;;;;;;10239974;28;20232;-77
2023/04/16 12:11:42;;;;;;;32.78;14.85;;;;;;;;;;10231856;28;20245;-75
2023/04/16 12:16:43;;;;;;;29.45;15.70;;;;;;;;;;10235695;28;20766;-75
2023/04/16 12:21:45;;;;;;;33.63;15.93;;;;;;;;;;10216157;28;20227;-77
2023/04/16 12:26:47;;;;;;;28.95;15.07;;;;;;;;;;10234236;28;20226;-77
2023/04/16 12:31:50;;;;;;;29.30;14.93;;;;;;;;;;10249186;28;20232;-79
2023/04/16 12:37:03;;;;;;;28.20;14.98;;;;;;;;;;10240665;28;20248;-80
2023/04/16 12:42:08;;;;;;;26.80;14.48;;;;;;;;;;10228086;28;20248;-75
2023/04/16 12:47:09;;;;;;;27.20;14.18;;;;;;;;;;10241767;28;20221;-76
2023/04/16 12:52:10;;;;;;;26.55;12.80;;;;;;;;;;10220063;28;20249;-78
2023/04/16 12:57:12;;;;;;;24.25;13.90;;;;;;;;;;10243096;28;20791;-80
2023/04/16 13:02:13;;;;;;;28.08;13.63;;;;;;;;;;10222565;28;20228;-79
2023/04/16 13:07:14;;;;;;;22.92;12.80;;;;;;;;;;10231758;28;21046;-77
2023/04/16 13:12:15;;;;;;;20.60;12.45;;;;;;;;;;10233212;28;20218;-75
2023/04/16 13:17:16;;;;;;;21.23;11.98;;;;;;;;;;10252899;28;20903;-78
2023/04/16 13:22:17;;;;;;;15.50;9.95;;;;;;;;;;10245221;28;20276;-75
2023/04/16 13:27:19;;;;;;;12.75;9.07;;;;;;;;;;10231412;28;20222;-78
2023/04/16 13:32:20;;;;;;;16.00;10.07;;;;;;;;;;10244260;28;20218;-78
2023/04/16 13:37:21;;;;;;;17.20;10.50;;;;;;;;;;10246291;28;20396;-78
2023/04/16 13:42:22;;;;;;;17.10;10.68;;;;;;;;;;10249150;28;20217;-74
2023/04/16 13:47:23;;;;;;;14.05;9.85;;;;;;;;;;10233581;28;20221;-75
2023/04/16 13:52:24;;;;;;;12.90;9.25;;;;;;;;;;10248416;28;20747;-78
2023/04/16 13:57:25;;;;;;;13.15;8.65;;;;;;;;;;10251991;28;20220;-75
2023/04/16 14:02:27;;;;;;;13.35;8.80;;;;;;;;;;10248759;28;20271;-76
2023/04/16 14:07:28;;;;;;;11.93;8.07;;;;;;;;;;10228838;28;20866;-76
2023/04/16 14:12:30;;;;;;;11.65;7.05;;;;;;;;;;10252499;28;20253;-78
2023/04/16 14:17:31;;;;;;;11.10;6.30;;;;;;;;;;10268988;28;20322;-76
2023/04/16 14:22:32;;;;;;;10.77;6.95;;;;;;;;;;10255483;28;21103;-76
2023/04/16 14:27:33;;;;;;;9.35;7.03;;;;;;;;;;10257135;28;20238;-76
2023/04/16 14:32:35;;;;;;;7.70;6.82;;;;;;;;;;10258192;28;20220;-76
2023/04/16 14:37:37;;;;;;;6.45;5.57;;;;;;;;;;10256324;28;20588;-76
2023/04/16 14:42:38;;;;;;;5.43;4.93;;;;;;;;;;10273046;28;20209;-78
2023/04/16 14:47:44;;;;;;;6.40;5.32;;;;;;;;;;10254880;28;20711;-77
2023/04/16 14:52:45;;;;;;;6.55;5.50;;;;;;;;;;10255122;28;21122;-77
2023/04/16 14:57:46;;;;;;;6.80;5.05;;;;;;;;;;10255810;28;20226;-76
2023/04/16 15:02:47;;;;;;;6.47;5.32;;;;;;;;;;10250333;28;20221;-76
2023/04/16 15:07:48;;;;;;;6.55;4.47;;;;;;;;;;10242627;28;20275;-78
2023/04/16 15:12:49;;;;;;;7.13;5.32;;;;;;;;;;10247168;28;21142;-77
2023/04/16 15:17:50;;;;;;;5.07;4.68;;;;;;;;;;10269792;28;20233;-76
2023/04/16 15:22:51;;;;;;;5.10;4.47;;;;;;;;;;10261137;28;20218;-76
2023/04/16 15:27:52;;;;;;;5.00;4.65;;;;;;;;;;10253074;28;21071;-76
2023/04/16 15:32:54;;;;;;;9.32;4.72;;;;;;;;;;10252398;28;20229;-77
2023/04/16 15:37:55;;;;;;;6.32;4.75;;;;;;;;;;10252824;28;20256;-78
2023/04/16 15:42:56;;;;;;;5.18;4.68;;;;;;;;;;10260638;28;20257;-75
2023/04/16 15:47:57;;;;;;;4.72;4.07;;;;;;;;;;10238632;28;20217;-77
2023/04/16 15:52:58;;;;;;;5.57;4.70;;;;;;;;;;10227863;28;20504;-78
2023/04/16 15:57:59;;;;;;;10.25;4.78;;;;;;;;;;10242631;28;20252;-77
2023/04/16 16:03:01;;;;;;;4.68;4.32;;;;;;;;;;10235001;28;20635;-80
2023/04/16 16:08:03;;;;;;;5.03;4.57;;;;;;;;;;10237841;28;20315;-80
2023/04/16 16:13:04;;;;;;;5.38;4.95;;;;;;;;;;10246141;28;20221;-79
2023/04/16 16:18:05;;;;;;;5.30;4.60;;;;;;;;;;10234568;28;20213;-76
2023/04/16 16:23:06;;;;;;;5.55;5.05;;;;;;;;;;10233532;28;20229;-78
2023/04/16 16:28:07;;;;;;;5.30;4.90;;;;;;;;;;10228362;28;20733;-76
2023/04/16 16:33:09;;;;;;;4.97;4.65;;;;;;;;;;10245167;28;20264;-76
2023/04/16 16:38:10;;;;;;;5.60;5.03;;;;;;;;;;10239793;28;20249;-79
2023/04/16 16:43:11;;;;;;;5.68;5.03;;;;;;;;;;10242866;28;20731;-78
2023/04/16 16:48:12;;;;;;;5.55;5.05;;;;;;;;;;10242578;28;20225;-78
2023/04/16 16:53:13;;;;;;;6.13;5.53;;;;;;;;;;10207519;28;20885;-77
2023/04/16 16:58:14;;;;;;;7.00;5.28;;;;;;;;;;10224187;28;20849;-78
2023/04/16 17:03:15;;;;;;;5.72;5.25;;;;;;;;;;10215277;28;20242;-77
2023/04/16 17:08:16;;;;;;;6.32;5.10;;;;;;;;;;10225880;28;20229;-78
2023/04/16 17:13:19;;;;;;;5.18;4.68;;;;;;;;;;10227491;28;20221;-77
2023/04/16 17:18:20;;;;;;;5.57;5.07;;;;;;;;;;10206791;28;20228;-78
2023/04/16 17:23:24;;;;;;;8.20;5.60;;;;;;;;;;10232038;28;21036;-76
2023/04/16 17:28:25;;;;;;;9.20;6.53;;;;;;;;;;10244135;28;20221;-78
2023/04/16 17:33:26;;;;;;;7.60;4.88;;;;;;;;;;10236749;28;20225;-76
2023/04/16 17:38:27;;;;;;;4.10;3.88;;;;;;;;;;10234402;28;20755;-75
2023/04/16 17:43:29;;;;;;;4.78;4.47;;;;;;;;;;10213390;28;20214;-79
2023/04/16 17:48:30;;;;;;;4.97;4.47;;;;;;;;;;10236760;28;20604;-79
2023/04/16 17:53:31;;;;;;;7.18;4.63;;;;;;;;;;10239976;28;20719;-77
2023/04/16 17:58:34;;;;;;;5.13;4.38;;;;;;;;;;10240368;28;20283;-78
2023/04/16 18:03:35;;;;;;;7.05;4.50;;;;;;;;;;10238111;28;20275;-75
2023/04/16 18:08:36;;;;;;;4.43;3.95;;;;;;;;;;10260999;28;20633;-80
2023/04/16 18:13:37;;;;;;;4.78;4.38;;;;;;;;;;10249523;28;20225;-76
2023/04/16 18:18:38;;;;;;;5.25;4.88;;;;;;;;;;10221415;28;20336;-76
2023/04/16 18:23:39;;;;;;;6.05;5.45;;;;;;;;;;10241492;28;20232;-77
2023/04/16 18:28:40;;;;;;;5.40;4.90;;;;;;;;;;10245057;28;20225;-77
2023/04/16 18:33:41;;;;;;;5.75;5.15;;;;;;;;;;10252795;28;20236;-76
2023/04/16 18:38:43;;;;;;;5.93;5.38;;;;;;;;;;10236760;28;20770;-80
2023/04/16 18:43:44;;;;;;;6.53;4.63;;;;;;;;;;10256665;28;20228;-81
2023/04/16 18:48:45;;;;;;;5.18;4.68;;;;;;;;;;10239497;28;20233;-79
2023/04/16 18:53:46;;;;;;;5.30;4.90;;;;;;;;;;10232618;28;20221;-81
2023/04/16 18:58:48;;;;;;;6.85;5.22;;;;;;;;;;10249760;28;20226;-78
2023/04/16 19:03:49;;;;;;;6.85;6.18;;;;;;;;;;10246812;28;20308;-79
2023/04/16 19:08:50;;;;;;;5.45;5.00;;;;;;;;;;10246948;28;20296;-79
2023/04/16 19:13:51;;;;;;;7.07;5.68;;;;;;;;;;10253436;28;20589;-79
2023/04/16 19:18:52;;;;;;;6.68;5.90;;;;;;;;;;10229728;28;20317;-81
2023/04/16 19:23:53;;;;;;;6.15;5.40;;;;;;;;;;10236302;28;20789;-78
2023/04/16 19:28:54;;;;;;;7.55;6.25;;;;;;;;;;10224750;28;20680;-82
2023/04/16 19:33:55;;;;;;;8.77;5.75;;;;;;;;;;10235996;28;20220;-78
2023/04/16 19:38:56;;;;;;;9.38;6.82;;;;;;;;;;10252541;28;20266;-80
2023/04/16 19:43:57;;;;;;;9.18;6.50;;;;;;;;;;10240136;28;20779;-80
2023/04/16 19:48:58;;;;;;;6.90;6.20;;;;;;;;;;10240723;28;20221;-78
2023/04/16 19:54:00;;;;;;;5.53;5.13;;;;;;;;;;10225833;28;20755;-80
2023/04/16 19:59:01;;;;;;;6.50;5.90;;;;;;;;;;10249215;28;20911;-80
2023/04/16 20:04:02;;;;;;;6.45;5.82;;;;;;;;;;10235390;28;20217;-78
2023/04/16 20:09:03;;;;;;;6.20;5.65;;;;;;;;;;10239856;28;20945;-76
2023/04/16 20:14:04;;;;;;;6.07;5.47;;;;;;;;;;10227204;28;20249;-79
2023/04/16 20:19:06;;;;;;;7.50;6.05;;;;;;;;;;10255181;28;20232;-76
2023/04/16 20:24:09;;;;;;;7.22;6.50;;;;;;;;;;10253840;28;20242;-74
2023/04/16 20:29:10;;;;;;;6.68;5.82;;;;;;;;;;10253012;28;20226;-79
2023/04/16 20:34:11;;;;;;;7.82;6.78;;;;;;;;;;10251367;28;20227;-76
2023/04/16 20:39:12;;;;;;;9.43;6.00;;;;;;;;;;10255756;28;20218;-77
2023/04/16 20:44:17;;;;;;;8.43;5.88;;;;;;;;;;10239473;28;20217;-75
2023/04/16 20:49:18;;;;;;;7.05;6.40;;;;;;;;;;10256587;28;20244;-76
2023/04/16 20:54:19;;;;;;;8.85;6.13;;;;;;;;;;10220216;28;20232;-77
2023/04/16 20:59:20;;;;;;;6.85;6.18;;;;;;;;;;10253703;28;20249;-75
2023/04/16 21:04:21;;;;;;;9.82;6.22;;;;;;;;;;10232223;28;20205;-76
2023/04/16 21:09:23;;;;;;;5.53;5.13;;;;;;;;;;10244635;28;20209;-74
2023/04/16 21:14:24;;;;;;;7.38;5.68;;;;;;;;;;10230175;28;20233;-76
2023/04/16 21:19:25;;;;;;;5.80;4.78;;;;;;;;;;10233312;28;20938;-76
2023/04/16 21:24:25;;;;;;;5.60;5.10;;;;;;;;;;10238573;28;20217;-76
2023/04/16 21:29:27;;;;;;;4.93;4.53;;;;;;;;;;10251438;28;20308;-76
2023/04/16 21:34:28;;;;;;;6.72;4.05;;;;;;;;;;10242015;28;20254;-76
2023/04/16 21:39:29;;;;;;;5.93;3.78;;;;;;;;;;10235857;28;20233;-75
2023/04/16 21:44:30;;;;;;;3.15;3.05;;;;;;;;;;10251916;28;20214;-77
2023/04/16 21:49:31;;;;;;;3.83;3.53;;;;;;;;;;10243434;28;21012;-75
2023/04/16 21:54:32;;;;;;;3.72;3.53;;;;;;;;;;10222379;28;21059;-76
2023/04/16 21:59:33;;;;;;;3.50;3.30;;;;;;;;;;10225076;28;20231;-76
2023/04/16 22:04:38;;;;;;;3.38;3.28;;;;;;;;;;10248050;28;20216;-77
2023/04/16 22:09:39;;;;;;;3.38;2.65;;;;;;;;;;10226643;28;20705;-78
2023/04/16 22:14:40;;;;;;;3.15;2.97;;;;;;;;;;10267205;28;20592;-76
2023/04/16 22:19:42;;;;;;;3.38;3.05;;;;;;;;;;10221158;28;20221;-76
2023/04/16 22:24:43;;;;;;;2.75;2.65;;;;;;;;;;10229945;28;20218;-76
2023/04/16 22:29:44;;;;;;;3.03;2.83;;;;;;;;;;10245041;28;20225;-76
2023/04/16 22:34:45;;;;;;;2.75;2.65;;;;;;;;;;10250225;28;20297;-77
2023/04/16 22:39:46;;;;;;;2.42;2.33;;;;;;;;;;10269557;28;20958;-78
2023/04/16 22:44:47;;;;;;;2.35;2.25;;;;;;;;;;10262065;28;20224;-77
2023/04/16 22:49:49;;;;;;;3.05;2.92;;;;;;;;;;10219179;28;20344;-73
2023/04/16 22:54:50;;;;;;;2.30;2.20;;;;;;;;;;10249798;28;20321;-76
2023/04/16 22:59:51;;;;;;;2.78;2.67;;;;;;;;;;10259607;28;20213;-76
2023/04/16 23:04:53;;;;;;;3.25;3.05;;;;;;;;;;10251943;28;20223;-75
2023/04/16 23:09:54;;;;;;;3.20;2.97;;;;;;;;;;10222821;28;20368;-76
2023/04/16 23:14:55;;;;;;;3.65;3.13;;;;;;;;;;10256751;28;20216;-75
2023/04/16 23:19:56;;;;;;;3.50;3.30;;;;;;;;;;10243227;28;20230;-74
2023/04/16 23:24:57;;;;;;;3.30;3.10;;;;;;;;;;10252894;28;20229;-77
2023/04/16 23:29:58;;;;;;;3.55;3.35;;;;;;;;;;10229725;28;20217;-77
2023/04/16 23:35:00;;;;;;;3.67;3.47;;;;;;;;;;10238228;28;20962;-75
2023/04/16 23:40:01;;;;;;;3.55;3.35;;;;;;;;;;10243932;28;20213;-76
2023/04/16 23:45:02;;;;;;;3.97;3.63;;;;;;;;;;10238812;28;20687;-76
2023/04/16 23:50:03;;;;;;;4.55;4.18;;;;;;;;;;10252635;28;20232;-77
2023/04/16 23:55:04;;;;;;;3.83;3.53;;;;;;;;;;10236514;28;20213;-76
